createdAt,value
2022-09-01T00:00:54.720Z,1.00
2022-09-01T00:03:27.560Z,1.00
2022-09-01T00:06:04.041Z,0.80
2022-09-01T00:08:36.444Z,0.90
2022-09-01T00:11:09.060Z,1.02
2022-09-01T00:13:42.589Z,1.40
2022-09-01T00:16:17.109Z,0.80
2022-09-01T00:18:51.911Z,0.82
2022-09-01T00:21:29.161Z,0.80
2022-09-01T00:24:03.080Z,0.98
2022-09-01T00:26:35.528Z,1.00
2022-09-01T00:29:08.067Z,0.95
2022-09-01T00:31:41.029Z,0.95
2022-09-01T00:34:13.482Z,1.05
2022-09-01T00:36:46.260Z,0.90
2022-09-01T00:39:19.465Z,1.33
2022-09-01T00:41:51.972Z,0.80
2022-09-01T00:44:27.199Z,0.93
2022-09-01T00:47:02.894Z,1.10
2022-09-01T00:49:43.054Z,0.90
2022-09-01T00:52:28.978Z,1.00
2022-09-01T00:55:10.013Z,1.20
2022-09-01T00:57:43.319Z,1.00
2022-09-01T01:00:23.392Z,1.30
2022-09-01T01:02:56.638Z,1.15
2022-09-01T01:05:34.078Z,0.93
2022-09-01T01:08:08.189Z,0.70
2022-09-01T01:10:42.537Z,0.85
2022-09-01T01:13:17.100Z,1.30
2022-09-01T01:15:49.543Z,1.13
2022-09-01T01:18:23.429Z,0.98
2022-09-01T01:21:22.590Z,1.10
2022-09-01T01:24:02.478Z,1.10
2022-09-01T01:26:35.349Z,0.93
2022-09-01T01:29:09.831Z,1.10
2022-09-01T01:31:42.233Z,1.20
2022-09-01T01:34:15.004Z,1.10
2022-09-01T01:36:47.837Z,0.93
2022-09-01T01:39:25.365Z,1.20
2022-09-01T01:41:59.059Z,1.30
2022-09-01T01:44:32.019Z,1.20
2022-09-01T01:47:08.337Z,1.30
2022-09-01T01:49:43.639Z,1.10
2022-09-01T01:52:17.297Z,1.25
2022-09-01T01:54:50.241Z,1.00
2022-09-01T01:57:22.650Z,0.93
2022-09-01T01:59:55.811Z,1.25
2022-09-01T02:02:28.308Z,1.40
2022-09-01T02:05:00.729Z,1.05
2022-09-01T02:07:33.784Z,1.02
2022-09-01T02:10:06.461Z,1.23
2022-09-01T02:12:40.421Z,1.25
2022-09-01T02:15:13.052Z,1.42
2022-09-01T02:17:46.968Z,1.13
2022-09-01T02:20:20.003Z,1.17
2022-09-01T02:22:55.336Z,1.15
2022-09-01T02:25:28.089Z,1.15
2022-09-01T02:28:02.888Z,1.10
2022-09-01T02:30:37.766Z,1.20
2022-09-01T02:33:10.314Z,1.25
2022-09-01T02:35:42.835Z,1.15
2022-09-01T02:38:17.716Z,1.50
2022-09-01T02:40:50.166Z,1.40
2022-09-01T02:43:23.132Z,1.33
2022-09-01T02:45:59.563Z,1.20
2022-09-01T02:48:37.276Z,1.25
2022-09-01T02:51:14.123Z,1.30
2022-09-01T02:53:52.552Z,1.48
2022-09-01T02:56:27.382Z,1.40
2022-09-01T02:59:00.200Z,1.67
2022-09-01T03:01:33.268Z,1.52
2022-09-01T03:04:10.325Z,1.27
2022-09-01T03:06:43.107Z,1.23
2022-09-01T03:09:17.465Z,1.20
2022-09-01T03:11:52.776Z,1.33
2022-09-01T03:14:25.924Z,1.27
2022-09-01T03:17:00.528Z,1.50
2022-09-01T03:19:36.981Z,1.20
2022-09-01T03:22:09.967Z,1.50
2022-09-01T03:24:42.376Z,1.33
2022-09-01T03:27:14.777Z,1.65
2022-09-01T03:29:47.332Z,1.52
2022-09-01T03:32:19.733Z,1.30
2022-09-01T03:34:52.171Z,1.50
2022-09-01T03:37:24.573Z,1.67
2022-09-01T03:39:59.980Z,1.33
2022-09-01T03:42:32.738Z,1.45
2022-09-01T03:45:12.592Z,1.52
2022-09-01T03:47:45.023Z,1.50
2022-09-01T03:50:21.813Z,1.40
2022-09-01T03:52:58.975Z,1.42
2022-09-01T03:55:34.303Z,1.30
2022-09-01T03:58:11.104Z,1.60
2022-09-01T04:00:49.288Z,1.70
2022-09-01T04:03:31.829Z,1.95
2022-09-01T04:06:04.363Z,1.40
2022-09-01T04:08:37.131Z,1.50
2022-09-01T04:11:23.994Z,1.80
2022-09-01T04:13:56.526Z,1.40
2022-09-01T04:16:49.816Z,1.73
2022-09-01T04:19:26.048Z,1.50
2022-09-01T04:22:00.683Z,1.73
2022-09-01T04:24:34.751Z,1.92
2022-09-01T04:27:07.537Z,1.80
2022-09-01T04:29:40.035Z,1.60
2022-09-01T04:32:13.138Z,1.60
2022-09-01T04:34:45.796Z,1.50
2022-09-01T04:37:21.754Z,1.33
2022-09-01T04:39:57.145Z,1.52
2022-09-01T04:45:10.286Z,1.60
2022-09-01T04:47:45.369Z,1.50
2022-09-01T04:50:18.195Z,1.50
2022-09-01T04:52:51.116Z,1.67
2022-09-01T04:55:28.596Z,1.48
2022-09-01T04:58:08.305Z,1.40
2022-09-01T05:00:45.091Z,1.30
2022-09-01T05:03:21.385Z,1.60
2022-09-01T05:06:00.100Z,1.42
2022-09-01T05:08:35.179Z,1.30
2022-09-01T05:11:08.318Z,1.73
2022-09-01T05:13:40.951Z,1.60
2022-09-01T05:16:18.496Z,1.40
2022-09-01T05:18:55.656Z,1.70
2022-09-01T05:21:29.602Z,1.80
2022-09-01T05:24:04.954Z,1.50
2022-09-01T05:26:40.759Z,1.40
2022-09-01T05:29:15.957Z,1.80
2022-09-01T05:31:50.371Z,1.60
2022-09-01T05:34:27.015Z,1.58
2022-09-01T05:36:59.895Z,1.35
2022-09-01T05:39:33.162Z,1.58
2022-09-01T05:42:09.975Z,1.70
2022-09-01T05:44:44.136Z,1.58
2022-09-01T05:47:20.652Z,1.90
2022-09-01T05:49:53.757Z,1.50
2022-09-01T05:52:26.371Z,1.40
2022-09-01T05:55:00.912Z,1.50
2022-09-01T05:57:35.359Z,1.40
2022-09-01T06:00:13.286Z,1.77
2022-09-01T06:02:45.800Z,1.55
2022-09-01T06:05:18.949Z,1.58
2022-09-01T06:07:51.954Z,1.80
2022-09-01T06:10:24.700Z,1.73
2022-09-01T06:12:57.180Z,1.40
2022-09-01T06:15:30.745Z,1.70
2022-09-01T06:18:05.320Z,1.90
2022-09-01T06:20:43.520Z,1.80
2022-09-01T06:23:17.831Z,1.42
2022-09-01T06:25:51.475Z,1.45
2022-09-01T06:28:23.977Z,1.60
2022-09-01T06:30:57.345Z,1.40
2022-09-01T06:33:30.951Z,1.30
2022-09-01T06:36:03.960Z,1.60
2022-09-01T06:38:37.424Z,1.38
2022-09-01T06:41:12.800Z,2.08
2022-09-01T06:43:53.436Z,1.60
2022-09-01T06:46:27.812Z,1.70
2022-09-01T06:49:00.300Z,1.80
2022-09-01T06:51:33.991Z,1.85
2022-09-01T06:54:11.235Z,2.10
2022-09-01T06:56:51.793Z,1.80
2022-09-01T06:59:34.747Z,2.28
2022-09-01T07:02:12.624Z,1.60
2022-09-01T07:04:49.902Z,1.70
2022-09-01T07:10:21.284Z,1.60
2022-09-01T07:13:07.342Z,2.08
2022-09-01T07:18:33.980Z,1.60
2022-09-01T07:21:36.917Z,1.40
2022-09-01T07:24:11.193Z,1.75
2022-09-01T07:26:46.852Z,1.60
2022-09-01T07:29:36.841Z,1.90
2022-09-01T07:35:07.436Z,1.50
2022-09-01T07:43:33.574Z,1.90
2022-09-01T07:49:02.931Z,1.60
2022-09-01T07:51:55.460Z,1.70
2022-09-01T07:54:27.953Z,1.50
2022-09-01T07:57:01.792Z,1.70
2022-09-01T07:59:35.367Z,1.52
2022-09-01T08:02:07.878Z,2.00
2022-09-01T08:04:40.375Z,1.60
2022-09-01T08:07:15.715Z,2.00
2022-09-01T08:09:48.561Z,2.20
2022-09-01T08:12:28.879Z,1.75
2022-09-01T08:17:56.183Z,1.52
2022-09-01T08:20:30.343Z,1.92
2022-09-01T08:23:03.315Z,2.00
2022-09-01T08:25:37.795Z,1.75
2022-09-01T08:28:11.617Z,1.75
2022-09-01T08:30:52.220Z,1.85
2022-09-01T08:33:26.361Z,1.90
2022-09-01T08:35:58.763Z,2.13
2022-09-01T08:38:31.252Z,1.75
2022-09-01T08:41:06.111Z,1.60
2022-09-01T08:43:44.186Z,1.63
2022-09-01T08:46:53.639Z,1.67
2022-09-01T08:49:27.422Z,1.77
2022-09-01T08:52:15.746Z,1.83
2022-09-01T08:54:57.872Z,1.98
2022-09-01T08:57:38.945Z,2.00
2022-09-01T09:00:15.310Z,1.60
2022-09-01T09:03:06.101Z,1.50
2022-09-01T09:05:57.321Z,1.52
2022-09-01T09:08:51.715Z,1.55
2022-09-01T09:11:38.059Z,1.35
2022-09-01T09:14:29.613Z,1.50
2022-09-01T09:17:04.285Z,1.67
2022-09-01T09:19:44.448Z,1.50
2022-09-01T09:22:20.456Z,1.30
2022-09-01T09:25:00.293Z,1.77
2022-09-01T09:27:48.127Z,1.65
2022-09-01T09:30:28.614Z,1.27
2022-09-01T09:33:47.578Z,1.20
2022-09-01T09:36:23.845Z,1.20
2022-09-01T09:39:06.220Z,1.60
2022-09-01T09:41:41.486Z,1.30
2022-09-01T09:44:26.957Z,1.13
2022-09-01T09:46:59.419Z,1.45
2022-09-01T09:49:35.939Z,1.30
2022-09-01T09:52:16.981Z,1.15
2022-09-01T09:55:06.802Z,0.80
2022-09-01T09:57:41.492Z,0.98
2022-09-01T10:00:34.538Z,1.48
2022-09-01T10:03:12.265Z,1.27
2022-09-01T10:05:53.725Z,0.90
2022-09-01T10:08:37.153Z,0.80
2022-09-01T10:11:09.617Z,0.70
2022-09-01T10:13:42.033Z,0.90
2022-09-01T10:16:27.757Z,0.90
2022-09-01T10:19:02.048Z,0.77
2022-09-01T10:21:38.219Z,0.68
2022-09-01T10:24:31.758Z,0.80
2022-09-01T10:27:16.661Z,1.30
2022-09-01T10:33:05.391Z,0.90
2022-09-01T10:35:47.150Z,0.88
2022-09-01T10:38:25.939Z,0.70
2022-09-01T10:41:14.268Z,0.63
2022-09-01T10:43:49.391Z,0.60
2022-09-01T10:46:26.243Z,0.88
2022-09-01T10:49:03.594Z,0.80
2022-09-01T10:51:51.552Z,0.70
2022-09-01T10:54:50.471Z,0.70
2022-09-01T10:59:29.891Z,0.80
2022-09-01T11:03:57.246Z,0.93
2022-09-01T11:06:42.360Z,0.75
2022-09-01T11:09:21.203Z,0.63
2022-09-01T11:12:17.332Z,0.70
2022-09-01T11:15:06.964Z,0.77
2022-09-01T11:17:56.857Z,0.95
2022-09-01T11:20:35.945Z,0.80
2022-09-01T11:23:14.787Z,0.60
2022-09-01T11:28:50.838Z,0.68
2022-09-01T11:31:42.854Z,0.80
2022-09-01T11:34:27.119Z,0.75
2022-09-01T11:37:01.234Z,1.02
2022-09-01T11:39:39.783Z,0.73
2022-09-01T11:42:26.283Z,0.90
2022-09-01T11:45:21.428Z,0.90
2022-09-01T11:48:07.388Z,1.02
2022-09-01T11:50:42.359Z,0.77
2022-09-01T11:55:56.930Z,0.60
2022-09-01T11:58:34.487Z,0.70
2022-09-01T12:01:13.208Z,0.70
2022-09-01T12:03:48.601Z,0.57
2022-09-01T12:06:24.734Z,0.50
2022-09-01T12:09:04.090Z,0.70
2022-09-01T12:11:36.583Z,0.77
2022-09-01T12:14:12.003Z,0.73
2022-09-01T12:16:44.700Z,0.70
2022-09-01T12:19:26.057Z,1.48
2022-09-01T12:22:14.771Z,0.60
2022-09-01T12:24:50.936Z,0.80
2022-09-01T12:27:23.383Z,0.80
2022-09-01T12:29:56.680Z,0.60
2022-09-01T12:32:29.279Z,0.93
2022-09-01T12:35:10.790Z,0.80
2022-09-01T12:37:43.941Z,0.60
2022-09-01T12:40:32.183Z,0.50
2022-09-01T12:43:04.631Z,0.63
2022-09-01T12:45:48.031Z,0.50
2022-09-01T12:48:28.655Z,0.50
2022-09-01T12:51:29.208Z,0.40
2022-09-01T12:54:04.674Z,0.60
2022-09-01T12:56:39.195Z,0.60
2022-09-01T12:59:17.269Z,0.50
2022-09-01T13:01:51.515Z,1.10
2022-09-01T13:04:30.898Z,0.40
2022-09-01T13:07:06.639Z,0.80
2022-09-01T13:09:39.143Z,0.50
2022-09-01T13:12:21.711Z,0.40
2022-09-01T13:14:54.127Z,0.40
2022-09-01T13:17:26.568Z,0.60
2022-09-01T13:19:58.975Z,0.63
2022-09-01T13:22:31.428Z,0.45
2022-09-01T13:25:05.092Z,0.60
2022-09-01T13:27:37.790Z,0.60
2022-09-01T13:30:11.873Z,0.60
2022-09-01T13:35:38.494Z,0.57
2022-09-01T13:38:11.797Z,0.60
2022-09-01T13:40:46.877Z,0.60
2022-09-01T13:43:22.811Z,0.50
2022-09-01T13:45:55.381Z,0.50
2022-09-01T13:49:02.364Z,0.70
2022-09-01T13:51:26.244Z,0.40
2022-09-01T13:53:58.663Z,0.52
2022-09-01T13:56:31.120Z,0.63
2022-09-01T13:59:03.604Z,0.60
2022-09-01T14:01:36.028Z,0.50
2022-09-01T14:04:10.305Z,0.50
2022-09-01T14:06:44.213Z,0.90
2022-09-01T14:09:17.716Z,0.68
2022-09-01T14:11:54.195Z,0.80
2022-09-01T14:14:26.677Z,0.70
2022-09-01T14:16:59.201Z,0.88
2022-09-01T14:19:31.696Z,1.08
2022-09-01T14:22:06.108Z,0.93
2022-09-01T14:24:40.823Z,1.13
2022-09-01T14:29:50.604Z,0.80
2022-09-01T14:32:27.602Z,0.60
2022-09-01T14:35:00.936Z,0.88
2022-09-01T14:37:33.824Z,0.70
2022-09-01T14:40:08.909Z,0.80
2022-09-01T14:42:48.986Z,0.60
2022-09-01T14:45:24.373Z,0.88
2022-09-01T14:48:00.591Z,1.00
2022-09-01T14:50:33.713Z,0.82
2022-09-01T14:53:06.182Z,0.95
2022-09-01T14:55:39.164Z,0.68
2022-09-01T14:58:11.627Z,0.90
2022-09-01T15:00:45.063Z,1.08
2022-09-01T15:03:22.419Z,0.63
2022-09-01T15:05:55.326Z,0.90
2022-09-01T15:08:27.754Z,1.20
2022-09-01T15:11:01.318Z,1.45
2022-09-01T15:13:33.727Z,1.73
2022-09-01T15:16:17.870Z,1.25
2022-09-01T15:18:51.636Z,1.67
2022-09-01T15:21:28.383Z,2.33
2022-09-01T15:24:02.015Z,1.77
2022-09-01T15:26:35.165Z,2.03
2022-09-01T15:29:09.921Z,2.40
2022-09-01T15:31:44.296Z,2.13
2022-09-01T15:34:18.834Z,1.58
2022-09-01T15:36:51.280Z,1.17
2022-09-01T15:39:23.694Z,1.15
2022-09-01T15:41:56.176Z,1.15
2022-09-01T15:44:29.548Z,1.10
2022-09-01T15:47:03.274Z,1.35
2022-09-01T15:49:36.000Z,1.10
2022-09-01T15:52:08.427Z,1.60
2022-09-01T15:54:40.855Z,1.23
2022-09-01T15:57:13.279Z,1.30
2022-09-01T15:59:45.723Z,1.30
2022-09-01T16:02:21.166Z,1.20
2022-09-01T16:04:56.955Z,1.67
2022-09-01T16:07:29.369Z,0.93
2022-09-01T16:10:02.020Z,0.77
2022-09-01T16:12:35.745Z,1.10
2022-09-01T16:15:08.900Z,1.02
2022-09-01T16:18:11.024Z,0.90
2022-09-01T16:20:55.270Z,1.17
2022-09-01T16:23:39.038Z,0.85
2022-09-01T16:26:15.297Z,0.88
2022-09-01T16:28:51.921Z,0.75
2022-09-01T16:31:27.906Z,1.40
2022-09-01T16:34:10.032Z,1.25
2022-09-01T16:36:51.712Z,1.08
2022-09-01T16:39:42.307Z,0.73
2022-09-01T16:42:26.207Z,1.00
2022-09-01T16:45:04.695Z,0.70
2022-09-01T16:47:49.235Z,0.88
2022-09-01T16:50:43.408Z,1.00
2022-09-01T16:53:47.010Z,1.00
2022-09-01T16:57:06.138Z,1.00
2022-09-01T16:59:56.022Z,1.20
2022-09-01T17:02:53.271Z,1.17
2022-09-01T17:05:52.947Z,1.00
2022-09-01T17:08:31.102Z,1.00
2022-09-01T17:11:19.040Z,1.10
2022-09-01T17:13:52.341Z,1.15
2022-09-01T17:16:29.653Z,1.00
2022-09-01T17:19:08.562Z,0.77
2022-09-01T17:21:53.821Z,0.90
2022-09-01T17:24:27.917Z,1.00
2022-09-01T17:27:08.449Z,0.90
2022-09-01T17:29:45.164Z,0.90
2022-09-01T17:32:35.583Z,0.90
2022-09-01T17:35:19.124Z,0.88
2022-09-01T17:38:06.745Z,0.70
2022-09-01T17:40:44.760Z,0.90
2022-09-01T17:43:45.970Z,1.08
2022-09-01T17:46:27.438Z,0.90
2022-09-01T17:49:13.787Z,1.10
2022-09-01T17:52:15.029Z,1.10
2022-09-01T17:55:21.514Z,0.90
2022-09-01T17:58:04.965Z,1.00
2022-09-01T18:00:48.672Z,1.02
2022-09-01T18:03:58.999Z,0.98
2022-09-01T18:06:42.918Z,1.00
2022-09-01T18:09:18.155Z,1.00
2022-09-01T18:12:09.782Z,1.10
2022-09-01T18:15:11.494Z,1.10
2022-09-01T18:17:50.367Z,1.45
2022-09-01T18:20:28.194Z,1.10
2022-09-01T18:23:07.271Z,1.40
2022-09-01T18:25:47.284Z,1.25
2022-09-01T18:28:19.748Z,1.08
2022-09-01T18:31:10.482Z,1.00
2022-09-01T18:33:42.893Z,1.00
2022-09-01T18:36:39.383Z,1.10
2022-09-01T18:39:12.656Z,1.15
2022-09-01T18:42:00.018Z,1.15
2022-09-01T18:44:54.043Z,1.38
2022-09-01T18:47:32.681Z,1.08
2022-09-01T18:50:34.433Z,1.20
2022-09-01T18:53:24.404Z,2.05
2022-09-01T18:56:14.290Z,1.48
2022-09-01T18:58:58.753Z,1.38
2022-09-01T19:01:54.322Z,1.60
2022-09-01T19:04:35.712Z,2.03
2022-09-01T19:07:36.759Z,2.40
2022-09-01T19:13:07.747Z,1.67
2022-09-01T19:15:51.394Z,1.88
2022-09-01T19:18:38.363Z,1.90
2022-09-01T19:21:26.780Z,1.90
2022-09-01T19:24:06.665Z,2.97
2022-09-01T19:26:47.526Z,2.65
2022-09-01T19:29:25.590Z,3.25
2022-09-01T19:32:02.427Z,3.00
2022-09-01T19:34:39.443Z,2.70
2022-09-01T19:37:12.421Z,1.92
2022-09-01T19:39:50.877Z,2.20
2022-09-01T19:42:28.707Z,1.75
2022-09-01T19:48:01.866Z,1.77
2022-09-01T19:53:43.813Z,1.50
2022-09-01T19:56:29.279Z,1.40
2022-09-01T19:59:18.583Z,1.90
2022-09-01T20:02:05.186Z,2.05
2022-09-01T20:04:59.195Z,1.30
2022-09-01T20:07:35.891Z,1.35
2022-09-01T20:10:33.412Z,1.30
2022-09-01T20:13:24.949Z,1.33
2022-09-01T20:16:00.600Z,1.50
2022-09-01T20:18:38.950Z,2.28
2022-09-01T20:21:18.843Z,2.10
2022-09-01T20:24:22.610Z,2.38
2022-09-01T20:27:25.484Z,1.63
2022-09-01T20:30:03.068Z,1.42
2022-09-01T20:32:41.289Z,1.20
2022-09-01T20:35:22.863Z,1.75
2022-09-01T20:38:42.124Z,1.48
2022-09-01T20:41:37.421Z,1.58
2022-09-01T20:44:26.372Z,1.42
2022-09-01T20:46:58.815Z,1.20
2022-09-01T20:49:33.744Z,1.40
2022-09-01T20:52:19.632Z,1.20
2022-09-01T20:55:00.848Z,1.00
2022-09-01T20:57:49.805Z,0.95
2022-09-01T21:00:27.969Z,1.00
2022-09-01T21:03:12.420Z,1.20
2022-09-01T21:06:08.792Z,1.10
2022-09-01T21:08:50.297Z,1.00
2022-09-01T21:11:35.703Z,0.90
2022-09-01T21:14:34.623Z,1.25
2022-09-01T21:17:48.564Z,0.75
2022-09-01T21:20:34.669Z,1.45
2022-09-01T21:23:07.074Z,1.50
2022-09-01T21:25:39.550Z,1.05
2022-09-01T21:28:17.479Z,0.80
2022-09-01T21:30:53.935Z,1.10
2022-09-01T21:33:30.294Z,0.93
2022-09-01T21:36:03.024Z,1.20
2022-09-01T21:38:35.543Z,1.02
2022-09-01T21:41:13.021Z,1.02
2022-09-01T21:43:46.469Z,0.80
2022-09-01T21:46:20.159Z,0.98
2022-09-01T21:48:52.627Z,1.23
2022-09-01T21:51:25.133Z,1.05
2022-09-01T21:53:57.542Z,1.40
2022-09-01T21:56:31.468Z,0.90
2022-09-01T21:59:04.277Z,1.02
2022-09-01T22:01:37.107Z,1.17
2022-09-01T22:04:10.378Z,1.10
2022-09-01T22:06:42.999Z,0.88
2022-09-01T22:09:20.634Z,0.90
2022-09-01T22:11:53.931Z,0.90
2022-09-01T22:14:27.736Z,1.00
2022-09-01T22:17:04.103Z,1.00
2022-09-01T22:19:37.108Z,1.10
2022-09-01T22:22:09.719Z,1.10
2022-09-01T22:24:42.260Z,1.00
2022-09-01T22:27:14.704Z,0.80
2022-09-01T22:29:47.155Z,0.70
2022-09-01T22:32:19.863Z,1.52
2022-09-01T22:34:52.260Z,1.00
2022-09-01T22:37:24.748Z,1.10
2022-09-01T22:39:57.208Z,1.05
2022-09-01T22:42:29.726Z,1.20
2022-09-01T22:45:03.401Z,1.13
2022-09-01T22:47:38.248Z,1.10
2022-09-01T22:50:11.832Z,0.93
2022-09-01T22:52:44.235Z,1.00
2022-09-01T22:55:16.647Z,1.00
2022-09-01T22:57:49.181Z,1.02
2022-09-01T23:00:21.687Z,0.93
2022-09-01T23:02:54.908Z,1.08
2022-09-01T23:05:29.222Z,1.00
2022-09-01T23:08:03.756Z,1.40
2022-09-01T23:10:36.392Z,1.40
2022-09-01T23:13:09.509Z,0.90
2022-09-01T23:15:41.915Z,0.90
2022-09-01T23:18:14.324Z,1.40
2022-09-01T23:20:46.716Z,1.05
2022-09-01T23:23:19.385Z,1.10
2022-09-01T23:25:53.613Z,1.13
2022-09-01T23:28:26.107Z,1.10
2022-09-01T23:30:58.971Z,1.10
2022-09-01T23:33:31.853Z,0.90
2022-09-01T23:36:08.573Z,0.88
2022-09-01T23:38:41.962Z,0.90
2022-09-01T23:41:18.237Z,1.00
2022-09-01T23:43:51.859Z,1.00
2022-09-01T23:46:27.369Z,1.33
2022-09-01T23:49:02.062Z,1.13
2022-09-01T23:51:35.425Z,1.20
2022-09-01T23:54:08.138Z,1.17
2022-09-01T23:56:41.144Z,0.93
2022-09-01T23:59:14.048Z,0.95
